<?xml version="1.0" encoding="UTF-8" standalone="no" ?>
<gpx xmlns="http://www.topografix.com/GPX/1/1" xmlns:xsi="http://www.w3.org/2001/XMLSchema-instance" xsi:schemaLocation="http://www.topografix.com/GPX/1/1 http://www.topografix.com/GPX/1/1/gpx.xsd" version="1.1" creator="VisuGPX - https://www.visugpx.com">
  <metadata>
    <name>Davrinche20104</name>
    <desc><![CDATA[la partie 4 des itinéraires de repérage]]></desc>
  </metadata>
  <trk>
    <name><![CDATA[--Châtelguyon-- OR-5373983:ser-jb04-b]]></name>
    <trkseg>
      <trkpt lat="45.92549" lon="3.06323">
        <ele>455</ele>
        <time>2015-10-17T14:23:34Z</time>
      </trkpt>
      <trkpt lat="45.92526" lon="3.06317">
        <ele>454</ele>
        <time>2015-10-17T14:25:34Z</time>
      </trkpt>
      <trkpt lat="45.92515" lon="3.06293">
        <ele>455</ele>
        <time>2015-10-17T14:27:34Z</time>
      </trkpt>
      <trkpt lat="45.92506" lon="3.06256">
        <ele>457</ele>
        <time>2015-10-17T14:29:34Z</time>
      </trkpt>
      <trkpt lat="45.92507" lon="3.06194">
        <ele>461</ele>
        <time>2015-10-17T14:31:34Z</time>
      </trkpt>
      <trkpt lat="45.92508" lon="3.06159">
        <ele>463</ele>
        <time>2015-10-17T14:33:34Z</time>
      </trkpt>
      <trkpt lat="45.92508" lon="3.06132">
        <ele>464</ele>
        <time>2015-10-17T14:35:34Z</time>
      </trkpt>
      <trkpt lat="45.92527" lon="3.06123">
        <ele>466</ele>
        <time>2015-10-17T14:37:34Z</time>
      </trkpt>
      <trkpt lat="45.9255" lon="3.06055">
        <ele>473</ele>
        <time>2015-10-17T14:39:34Z</time>
      </trkpt>
      <trkpt lat="45.92574" lon="3.06004">
        <ele>481</ele>
        <time>2015-10-17T14:41:34Z</time>
      </trkpt>
      <trkpt lat="45.9258" lon="3.05954">
        <ele>486</ele>
        <time>2015-10-17T14:43:34Z</time>
      </trkpt>
      <trkpt lat="45.92592" lon="3.05888">
        <ele>495</ele>
        <time>2015-10-17T14:45:34Z</time>
      </trkpt>
      <trkpt lat="45.92619" lon="3.05888">
        <ele>498</ele>
        <time>2015-10-17T14:47:34Z</time>
      </trkpt>
      <trkpt lat="45.92653" lon="3.05913">
        <ele>497</ele>
        <time>2015-10-17T14:49:34Z</time>
      </trkpt>
      <trkpt lat="45.9267" lon="3.05929">
        <ele>497</ele>
        <time>2015-10-17T14:51:34Z</time>
      </trkpt>
      <trkpt lat="45.92684" lon="3.05954">
        <ele>496</ele>
        <time>2015-10-17T14:53:34Z</time>
      </trkpt>
      <trkpt lat="45.92697" lon="3.0597">
        <ele>496</ele>
        <time>2015-10-17T14:55:34Z</time>
      </trkpt>
      <trkpt lat="45.92724" lon="3.05977">
        <ele>498</ele>
        <time>2015-10-17T14:57:34Z</time>
      </trkpt>
      <trkpt lat="45.92745" lon="3.05983">
        <ele>499</ele>
        <time>2015-10-17T14:59:34Z</time>
      </trkpt>
      <trkpt lat="45.92763" lon="3.0599">
        <ele>501</ele>
        <time>2015-10-17T15:01:34Z</time>
      </trkpt>
      <trkpt lat="45.92793" lon="3.06015">
        <ele>502</ele>
        <time>2015-10-17T15:03:34Z</time>
      </trkpt>
      <trkpt lat="45.92827" lon="3.06048">
        <ele>501</ele>
        <time>2015-10-17T15:05:34Z</time>
      </trkpt>
      <trkpt lat="45.92877" lon="3.06091">
        <ele>498</ele>
        <time>2015-10-17T15:07:34Z</time>
      </trkpt>
      <trkpt lat="45.92898" lon="3.06111">
        <ele>497</ele>
        <time>2015-10-17T15:09:34Z</time>
      </trkpt>
      <trkpt lat="45.92928" lon="3.06144">
        <ele>492</ele>
        <time>2015-10-17T15:11:34Z</time>
      </trkpt>
      <trkpt lat="45.92955" lon="3.06165">
        <ele>485</ele>
        <time>2015-10-17T15:13:34Z</time>
      </trkpt>
      <trkpt lat="45.92959" lon="3.06184">
        <ele>483</ele>
        <time>2015-10-17T15:15:34Z</time>
      </trkpt>
      <trkpt lat="45.92954" lon="3.06211">
        <ele>482</ele>
        <time>2015-10-17T15:17:34Z</time>
      </trkpt>
      <trkpt lat="45.92965" lon="3.06207">
        <ele>481</ele>
        <time>2015-10-17T15:19:34Z</time>
      </trkpt>
      <trkpt lat="45.92972" lon="3.06187">
        <ele>481</ele>
        <time>2015-10-17T15:21:34Z</time>
      </trkpt>
      <trkpt lat="45.92976" lon="3.0616">
        <ele>481</ele>
        <time>2015-10-17T15:23:34Z</time>
      </trkpt>
      <trkpt lat="45.92979" lon="3.06122">
        <ele>482</ele>
        <time>2015-10-17T15:25:34Z</time>
      </trkpt>
      <trkpt lat="45.92985" lon="3.06028">
        <ele>483</ele>
        <time>2015-10-17T15:27:34Z</time>
      </trkpt>
      <trkpt lat="45.93001" lon="3.05935">
        <ele>484</ele>
        <time>2015-10-17T15:29:34Z</time>
      </trkpt>
      <trkpt lat="45.9303" lon="3.05864">
        <ele>482</ele>
        <time>2015-10-17T15:31:34Z</time>
      </trkpt>
      <trkpt lat="45.93047" lon="3.05834">
        <ele>478</ele>
        <time>2015-10-17T15:33:34Z</time>
      </trkpt>
      <trkpt lat="45.9308" lon="3.05775">
        <ele>469</ele>
        <time>2015-10-17T15:35:34Z</time>
      </trkpt>
      <trkpt lat="45.93106" lon="3.05728">
        <ele>470</ele>
        <time>2015-10-17T15:37:34Z</time>
      </trkpt>
      <trkpt lat="45.93121" lon="3.05702">
        <ele>468</ele>
        <time>2015-10-17T15:39:34Z</time>
      </trkpt>
      <trkpt lat="45.93126" lon="3.05724">
        <ele>466</ele>
        <time>2015-10-17T15:41:34Z</time>
      </trkpt>
      <trkpt lat="45.93118" lon="3.05747">
        <ele>467</ele>
        <time>2015-10-17T15:43:34Z</time>
      </trkpt>
      <trkpt lat="45.93103" lon="3.05775">
        <ele>466</ele>
        <time>2015-10-17T15:45:34Z</time>
      </trkpt>
      <trkpt lat="45.9308" lon="3.05833">
        <ele>462</ele>
        <time>2015-10-17T15:47:34Z</time>
      </trkpt>
      <trkpt lat="45.93063" lon="3.05876">
        <ele>465</ele>
        <time>2015-10-17T15:49:34Z</time>
      </trkpt>
      <trkpt lat="45.93046" lon="3.05916">
        <ele>467</ele>
        <time>2015-10-17T15:51:34Z</time>
      </trkpt>
      <trkpt lat="45.93029" lon="3.05972">
        <ele>470</ele>
        <time>2015-10-17T15:53:34Z</time>
      </trkpt>
      <trkpt lat="45.93026" lon="3.06061">
        <ele>469</ele>
        <time>2015-10-17T15:55:34Z</time>
      </trkpt>
      <trkpt lat="45.93027" lon="3.0611">
        <ele>468</ele>
        <time>2015-10-17T15:57:34Z</time>
      </trkpt>
      <trkpt lat="45.93033" lon="3.06181">
        <ele>465</ele>
        <time>2015-10-17T15:59:34Z</time>
      </trkpt>
      <trkpt lat="45.93044" lon="3.06225">
        <ele>460</ele>
        <time>2015-10-17T16:01:34Z</time>
      </trkpt>
      <trkpt lat="45.93053" lon="3.06281">
        <ele>454</ele>
        <time>2015-10-17T16:03:34Z</time>
      </trkpt>
      <trkpt lat="45.93076" lon="3.06267">
        <ele>446</ele>
        <time>2015-10-17T16:05:34Z</time>
      </trkpt>
      <trkpt lat="45.93108" lon="3.06203">
        <ele>451</ele>
        <time>2015-10-17T16:07:34Z</time>
      </trkpt>
      <trkpt lat="45.93094" lon="3.06057">
        <ele>454</ele>
        <time>2015-10-17T16:09:34Z</time>
      </trkpt>
      <trkpt lat="45.93096" lon="3.0604">
        <ele>455</ele>
        <time>2015-10-17T16:11:34Z</time>
      </trkpt>
      <trkpt lat="45.93103" lon="3.06068">
        <ele>457</ele>
        <time>2015-10-17T16:13:34Z</time>
      </trkpt>
      <trkpt lat="45.93108" lon="3.06105">
        <ele>458</ele>
        <time>2015-10-17T16:15:34Z</time>
      </trkpt>
      <trkpt lat="45.93112" lon="3.06149">
        <ele>456</ele>
        <time>2015-10-17T16:17:34Z</time>
      </trkpt>
      <trkpt lat="45.9312" lon="3.06179">
        <ele>457</ele>
        <time>2015-10-17T16:19:34Z</time>
      </trkpt>
      <trkpt lat="45.93131" lon="3.06196">
        <ele>458</ele>
        <time>2015-10-17T16:21:34Z</time>
      </trkpt>
      <trkpt lat="45.93154" lon="3.06232">
        <ele>459</ele>
        <time>2015-10-17T16:23:34Z</time>
      </trkpt>
      <trkpt lat="45.93167" lon="3.06258">
        <ele>458</ele>
        <time>2015-10-17T16:25:34Z</time>
      </trkpt>
      <trkpt lat="45.93197" lon="3.06348">
        <ele>458</ele>
        <time>2015-10-17T16:27:34Z</time>
      </trkpt>
      <trkpt lat="45.93211" lon="3.06373">
        <ele>459</ele>
        <time>2015-10-17T16:29:34Z</time>
      </trkpt>
      <trkpt lat="45.93238" lon="3.06408">
        <ele>461</ele>
        <time>2015-10-17T16:31:34Z</time>
      </trkpt>
      <trkpt lat="45.93256" lon="3.06412">
        <ele>464</ele>
        <time>2015-10-17T16:33:34Z</time>
      </trkpt>
      <trkpt lat="45.93277" lon="3.0642">
        <ele>465</ele>
        <time>2015-10-17T16:35:34Z</time>
      </trkpt>
      <trkpt lat="45.93296" lon="3.06425">
        <ele>467</ele>
        <time>2015-10-17T16:37:34Z</time>
      </trkpt>
      <trkpt lat="45.93314" lon="3.06429">
        <ele>469</ele>
        <time>2015-10-17T16:39:34Z</time>
      </trkpt>
      <trkpt lat="45.93338" lon="3.06442">
        <ele>470</ele>
        <time>2015-10-17T16:41:34Z</time>
      </trkpt>
      <trkpt lat="45.93361" lon="3.06453">
        <ele>472</ele>
        <time>2015-10-17T16:43:34Z</time>
      </trkpt>
      <trkpt lat="45.93381" lon="3.06475">
        <ele>470</ele>
        <time>2015-10-17T16:45:34Z</time>
      </trkpt>
      <trkpt lat="45.93397" lon="3.06492">
        <ele>468</ele>
        <time>2015-10-17T16:47:34Z</time>
      </trkpt>
      <trkpt lat="45.93428" lon="3.06513">
        <ele>468</ele>
        <time>2015-10-17T16:49:34Z</time>
      </trkpt>
      <trkpt lat="45.93447" lon="3.06524">
        <ele>468</ele>
        <time>2015-10-17T16:51:34Z</time>
      </trkpt>
      <trkpt lat="45.93459" lon="3.06527">
        <ele>469</ele>
        <time>2015-10-17T16:53:34Z</time>
      </trkpt>
      <trkpt lat="45.9347" lon="3.0652">
        <ele>471</ele>
        <time>2015-10-17T16:55:34Z</time>
      </trkpt>
      <trkpt lat="45.93473" lon="3.06504">
        <ele>473</ele>
        <time>2015-10-17T16:57:34Z</time>
      </trkpt>
      <trkpt lat="45.93476" lon="3.06476">
        <ele>478</ele>
        <time>2015-10-17T16:59:34Z</time>
      </trkpt>
      <trkpt lat="45.93482" lon="3.0646">
        <ele>481</ele>
        <time>2015-10-17T17:01:34Z</time>
      </trkpt>
      <trkpt lat="45.93488" lon="3.06437">
        <ele>486</ele>
        <time>2015-10-17T17:03:34Z</time>
      </trkpt>
      <trkpt lat="45.93482" lon="3.06407">
        <ele>492</ele>
        <time>2015-10-17T17:05:34Z</time>
      </trkpt>
      <trkpt lat="45.93479" lon="3.06384">
        <ele>496</ele>
        <time>2015-10-17T17:07:34Z</time>
      </trkpt>
      <trkpt lat="45.93477" lon="3.06353">
        <ele>502</ele>
        <time>2015-10-17T17:09:34Z</time>
      </trkpt>
      <trkpt lat="45.93481" lon="3.06328">
        <ele>506</ele>
        <time>2015-10-17T17:11:34Z</time>
      </trkpt>
      <trkpt lat="45.93474" lon="3.06278">
        <ele>516</ele>
        <time>2015-10-17T17:13:34Z</time>
      </trkpt>
      <trkpt lat="45.93467" lon="3.06262">
        <ele>520</ele>
        <time>2015-10-17T17:15:34Z</time>
      </trkpt>
      <trkpt lat="45.93459" lon="3.06239">
        <ele>525</ele>
        <time>2015-10-17T17:17:34Z</time>
      </trkpt>
      <trkpt lat="45.9345" lon="3.06221">
        <ele>529</ele>
        <time>2015-10-17T17:19:34Z</time>
      </trkpt>
      <trkpt lat="45.93439" lon="3.06203">
        <ele>533</ele>
        <time>2015-10-17T17:21:34Z</time>
      </trkpt>
      <trkpt lat="45.93415" lon="3.06205">
        <ele>533</ele>
        <time>2015-10-17T17:23:34Z</time>
      </trkpt>
      <trkpt lat="45.93395" lon="3.06202">
        <ele>533</ele>
        <time>2015-10-17T17:25:34Z</time>
      </trkpt>
      <trkpt lat="45.93367" lon="3.06204">
        <ele>531</ele>
        <time>2015-10-17T17:27:34Z</time>
      </trkpt>
      <trkpt lat="45.93334" lon="3.06195">
        <ele>531</ele>
        <time>2015-10-17T17:29:34Z</time>
      </trkpt>
      <trkpt lat="45.93311" lon="3.06187">
        <ele>526</ele>
        <time>2015-10-17T17:31:34Z</time>
      </trkpt>
      <trkpt lat="45.93297" lon="3.06176">
        <ele>524</ele>
        <time>2015-10-17T17:33:34Z</time>
      </trkpt>
      <trkpt lat="45.93288" lon="3.06134">
        <ele>529</ele>
        <time>2015-10-17T17:35:34Z</time>
      </trkpt>
      <trkpt lat="45.93267" lon="3.06072">
        <ele>532</ele>
        <time>2015-10-17T17:37:34Z</time>
      </trkpt>
      <trkpt lat="45.93257" lon="3.06032">
        <ele>534</ele>
        <time>2015-10-17T17:39:34Z</time>
      </trkpt>
      <trkpt lat="45.9325" lon="3.0601">
        <ele>534</ele>
        <time>2015-10-17T17:41:34Z</time>
      </trkpt>
      <trkpt lat="45.93253" lon="3.05988">
        <ele>535</ele>
        <time>2015-10-17T17:43:34Z</time>
      </trkpt>
      <trkpt lat="45.93262" lon="3.05965">
        <ele>535</ele>
        <time>2015-10-17T17:45:34Z</time>
      </trkpt>
      <trkpt lat="45.93278" lon="3.05915">
        <ele>538</ele>
        <time>2015-10-17T17:47:34Z</time>
      </trkpt>
      <trkpt lat="45.93286" lon="3.05883">
        <ele>535</ele>
        <time>2015-10-17T17:49:34Z</time>
      </trkpt>
      <trkpt lat="45.93297" lon="3.05861">
        <ele>535</ele>
        <time>2015-10-17T17:51:34Z</time>
      </trkpt>
      <trkpt lat="45.93314" lon="3.05842">
        <ele>540</ele>
        <time>2015-10-17T17:53:34Z</time>
      </trkpt>
      <trkpt lat="45.93329" lon="3.05797">
        <ele>540</ele>
        <time>2015-10-17T17:55:34Z</time>
      </trkpt>
      <trkpt lat="45.9333" lon="3.05764">
        <ele>536</ele>
        <time>2015-10-17T17:57:34Z</time>
      </trkpt>
      <trkpt lat="45.93326" lon="3.05724">
        <ele>530</ele>
        <time>2015-10-17T17:59:34Z</time>
      </trkpt>
      <trkpt lat="45.9332" lon="3.05692">
        <ele>524</ele>
        <time>2015-10-17T18:01:34Z</time>
      </trkpt>
      <trkpt lat="45.93339" lon="3.05653">
        <ele>527</ele>
        <time>2015-10-17T18:03:34Z</time>
      </trkpt>
      <trkpt lat="45.93351" lon="3.0564">
        <ele>530</ele>
        <time>2015-10-17T18:05:34Z</time>
      </trkpt>
      <trkpt lat="45.93369" lon="3.05612">
        <ele>532</ele>
        <time>2015-10-17T18:07:34Z</time>
      </trkpt>
      <trkpt lat="45.93381" lon="3.05593">
        <ele>533</ele>
        <time>2015-10-17T18:09:34Z</time>
      </trkpt>
      <trkpt lat="45.93405" lon="3.05573">
        <ele>539</ele>
        <time>2015-10-17T18:11:34Z</time>
      </trkpt>
      <trkpt lat="45.93419" lon="3.05559">
        <ele>542</ele>
        <time>2015-10-17T18:13:34Z</time>
      </trkpt>
      <trkpt lat="45.93432" lon="3.05521">
        <ele>537</ele>
        <time>2015-10-17T18:15:34Z</time>
      </trkpt>
      <trkpt lat="45.93452" lon="3.05487">
        <ele>536</ele>
        <time>2015-10-17T18:17:34Z</time>
      </trkpt>
      <trkpt lat="45.93494" lon="3.05464">
        <ele>545</ele>
        <time>2015-10-17T18:19:34Z</time>
      </trkpt>
      <trkpt lat="45.93517" lon="3.05479">
        <ele>555</ele>
        <time>2015-10-17T18:21:34Z</time>
      </trkpt>
      <trkpt lat="45.93552" lon="3.05511">
        <ele>566</ele>
        <time>2015-10-17T18:23:34Z</time>
      </trkpt>
      <trkpt lat="45.93583" lon="3.05526">
        <ele>572</ele>
        <time>2015-10-17T18:25:34Z</time>
      </trkpt>
      <trkpt lat="45.93594" lon="3.05525">
        <ele>575</ele>
        <time>2015-10-17T18:27:34Z</time>
      </trkpt>
      <trkpt lat="45.93595" lon="3.05504">
        <ele>572</ele>
        <time>2015-10-17T18:29:34Z</time>
      </trkpt>
      <trkpt lat="45.9359" lon="3.05486">
        <ele>568</ele>
        <time>2015-10-17T18:31:34Z</time>
      </trkpt>
      <trkpt lat="45.93588" lon="3.05467">
        <ele>565</ele>
        <time>2015-10-17T18:33:34Z</time>
      </trkpt>
      <trkpt lat="45.93594" lon="3.0542">
        <ele>561</ele>
        <time>2015-10-17T18:35:34Z</time>
      </trkpt>
      <trkpt lat="45.93612" lon="3.05368">
        <ele>561</ele>
        <time>2015-10-17T18:37:34Z</time>
      </trkpt>
      <trkpt lat="45.93637" lon="3.05335">
        <ele>566</ele>
        <time>2015-10-17T18:39:34Z</time>
      </trkpt>
      <trkpt lat="45.93655" lon="3.05288">
        <ele>571</ele>
        <time>2015-10-17T18:41:34Z</time>
      </trkpt>
      <trkpt lat="45.93664" lon="3.05265">
        <ele>573</ele>
        <time>2015-10-17T18:43:34Z</time>
      </trkpt>
      <trkpt lat="45.93676" lon="3.05248">
        <ele>576</ele>
        <time>2015-10-17T18:45:34Z</time>
      </trkpt>
      <trkpt lat="45.93672" lon="3.05228">
        <ele>578</ele>
        <time>2015-10-17T18:47:34Z</time>
      </trkpt>
      <trkpt lat="45.93657" lon="3.05221">
        <ele>575</ele>
        <time>2015-10-17T18:49:34Z</time>
      </trkpt>
      <trkpt lat="45.93602" lon="3.05218">
        <ele>563</ele>
        <time>2015-10-17T18:51:34Z</time>
      </trkpt>
      <trkpt lat="45.93588" lon="3.05204">
        <ele>562</ele>
        <time>2015-10-17T18:53:34Z</time>
      </trkpt>
      <trkpt lat="45.93594" lon="3.05187">
        <ele>566</ele>
        <time>2015-10-17T18:55:34Z</time>
      </trkpt>
      <trkpt lat="45.93614" lon="3.05156">
        <ele>573</ele>
        <time>2015-10-17T18:57:34Z</time>
      </trkpt>
      <trkpt lat="45.93626" lon="3.05132">
        <ele>575</ele>
        <time>2015-10-17T18:59:34Z</time>
      </trkpt>
      <trkpt lat="45.93661" lon="3.05134">
        <ele>585</ele>
        <time>2015-10-17T19:01:34Z</time>
      </trkpt>
      <trkpt lat="45.93679" lon="3.05139">
        <ele>589</ele>
        <time>2015-10-17T19:03:34Z</time>
      </trkpt>
      <trkpt lat="45.93708" lon="3.0515">
        <ele>595</ele>
        <time>2015-10-17T19:05:34Z</time>
      </trkpt>
      <trkpt lat="45.93718" lon="3.05132">
        <ele>598</ele>
        <time>2015-10-17T19:07:34Z</time>
      </trkpt>
      <trkpt lat="45.93747" lon="3.05154">
        <ele>604</ele>
        <time>2015-10-17T19:09:34Z</time>
      </trkpt>
      <trkpt lat="45.93763" lon="3.05155">
        <ele>607</ele>
        <time>2015-10-17T19:11:34Z</time>
      </trkpt>
      <trkpt lat="45.93785" lon="3.05148">
        <ele>612</ele>
        <time>2015-10-17T19:13:34Z</time>
      </trkpt>
      <trkpt lat="45.938" lon="3.05138">
        <ele>615</ele>
        <time>2015-10-17T19:15:34Z</time>
      </trkpt>
      <trkpt lat="45.93823" lon="3.05125">
        <ele>622</ele>
        <time>2015-10-17T19:17:34Z</time>
      </trkpt>
      <trkpt lat="45.9384" lon="3.05117">
        <ele>626</ele>
        <time>2015-10-17T19:19:34Z</time>
      </trkpt>
      <trkpt lat="45.93864" lon="3.05128">
        <ele>628</ele>
        <time>2015-10-17T19:21:34Z</time>
      </trkpt>
      <trkpt lat="45.93876" lon="3.05143">
        <ele>628</ele>
        <time>2015-10-17T19:23:34Z</time>
      </trkpt>
      <trkpt lat="45.93899" lon="3.05151">
        <ele>630</ele>
        <time>2015-10-17T19:25:34Z</time>
      </trkpt>
      <trkpt lat="45.9391" lon="3.05171">
        <ele>630</ele>
        <time>2015-10-17T19:27:34Z</time>
      </trkpt>
      <trkpt lat="45.93918" lon="3.05199">
        <ele>629</ele>
        <time>2015-10-17T19:29:34Z</time>
      </trkpt>
      <trkpt lat="45.93922" lon="3.05212">
        <ele>628</ele>
        <time>2015-10-17T19:31:34Z</time>
      </trkpt>
      <trkpt lat="45.93926" lon="3.05248">
        <ele>624</ele>
        <time>2015-10-17T19:33:34Z</time>
      </trkpt>
      <trkpt lat="45.93932" lon="3.05293">
        <ele>623</ele>
        <time>2015-10-17T19:35:34Z</time>
      </trkpt>
      <trkpt lat="45.93938" lon="3.05318">
        <ele>621</ele>
        <time>2015-10-17T19:37:34Z</time>
      </trkpt>
      <trkpt lat="45.93942" lon="3.05357">
        <ele>621</ele>
        <time>2015-10-17T19:39:34Z</time>
      </trkpt>
      <trkpt lat="45.93949" lon="3.05395">
        <ele>622</ele>
        <time>2015-10-17T19:41:34Z</time>
      </trkpt>
      <trkpt lat="45.93959" lon="3.05421">
        <ele>621</ele>
        <time>2015-10-17T19:43:34Z</time>
      </trkpt>
      <trkpt lat="45.93977" lon="3.0547">
        <ele>621</ele>
        <time>2015-10-17T19:45:34Z</time>
      </trkpt>
      <trkpt lat="45.93991" lon="3.05523">
        <ele>622</ele>
        <time>2015-10-17T19:47:34Z</time>
      </trkpt>
      <trkpt lat="45.94002" lon="3.05554">
        <ele>622</ele>
        <time>2015-10-17T19:49:34Z</time>
      </trkpt>
      <trkpt lat="45.94006" lon="3.05587">
        <ele>623</ele>
        <time>2015-10-17T19:51:34Z</time>
      </trkpt>
      <trkpt lat="45.94035" lon="3.05689">
        <ele>621</ele>
        <time>2015-10-17T19:53:34Z</time>
      </trkpt>
      <trkpt lat="45.9405" lon="3.05746">
        <ele>618</ele>
        <time>2015-10-17T19:55:34Z</time>
      </trkpt>
      <trkpt lat="45.94064" lon="3.05788">
        <ele>615</ele>
        <time>2015-10-17T19:57:34Z</time>
      </trkpt>
      <trkpt lat="45.94076" lon="3.05835">
        <ele>613</ele>
        <time>2015-10-17T19:59:34Z</time>
      </trkpt>
      <trkpt lat="45.94087" lon="3.05861">
        <ele>611</ele>
        <time>2015-10-17T20:01:34Z</time>
      </trkpt>
      <trkpt lat="45.94095" lon="3.05911">
        <ele>607</ele>
        <time>2015-10-17T20:03:34Z</time>
      </trkpt>
      <trkpt lat="45.94149" lon="3.05912">
        <ele>607</ele>
        <time>2015-10-17T20:05:34Z</time>
      </trkpt>
      <trkpt lat="45.94172" lon="3.05914">
        <ele>607</ele>
        <time>2015-10-17T20:07:34Z</time>
      </trkpt>
      <trkpt lat="45.94207" lon="3.05909">
        <ele>604</ele>
        <time>2015-10-17T20:09:34Z</time>
      </trkpt>
      <trkpt lat="45.94264" lon="3.05896">
        <ele>599</ele>
        <time>2015-10-17T20:11:34Z</time>
      </trkpt>
      <trkpt lat="45.94305" lon="3.0589">
        <ele>593</ele>
        <time>2015-10-17T20:13:34Z</time>
      </trkpt>
      <trkpt lat="45.9431" lon="3.05927">
        <ele>593</ele>
        <time>2015-10-17T20:15:34Z</time>
      </trkpt>
      <trkpt lat="45.94309" lon="3.05952">
        <ele>592</ele>
        <time>2015-10-17T20:17:34Z</time>
      </trkpt>
      <trkpt lat="45.94301" lon="3.05994">
        <ele>593</ele>
        <time>2015-10-17T20:19:34Z</time>
      </trkpt>
      <trkpt lat="45.9432" lon="3.06056">
        <ele>588</ele>
        <time>2015-10-17T20:21:34Z</time>
      </trkpt>
      <trkpt lat="45.94367" lon="3.0604">
        <ele>580</ele>
        <time>2015-10-17T20:23:34Z</time>
      </trkpt>
      <trkpt lat="45.94408" lon="3.06041">
        <ele>571</ele>
        <time>2015-10-17T20:25:34Z</time>
      </trkpt>
      <trkpt lat="45.94437" lon="3.06057">
        <ele>564</ele>
        <time>2015-10-17T20:27:34Z</time>
      </trkpt>
      <trkpt lat="45.94488" lon="3.06061">
        <ele>552</ele>
        <time>2015-10-17T20:29:34Z</time>
      </trkpt>
      <trkpt lat="45.94525" lon="3.06064">
        <ele>544</ele>
        <time>2015-10-17T20:31:34Z</time>
      </trkpt>
      <trkpt lat="45.94543" lon="3.06096">
        <ele>539</ele>
        <time>2015-10-17T20:33:34Z</time>
      </trkpt>
      <trkpt lat="45.9456" lon="3.06115">
        <ele>538</ele>
        <time>2015-10-17T20:35:34Z</time>
      </trkpt>
      <trkpt lat="45.94584" lon="3.06124">
        <ele>534</ele>
        <time>2015-10-17T20:37:34Z</time>
      </trkpt>
      <trkpt lat="45.94611" lon="3.06126">
        <ele>529</ele>
        <time>2015-10-17T20:39:34Z</time>
      </trkpt>
      <trkpt lat="45.94634" lon="3.06135">
        <ele>525</ele>
        <time>2015-10-17T20:41:34Z</time>
      </trkpt>
      <trkpt lat="45.94659" lon="3.06146">
        <ele>521</ele>
        <time>2015-10-17T20:43:34Z</time>
      </trkpt>
      <trkpt lat="45.94675" lon="3.06162">
        <ele>519</ele>
        <time>2015-10-17T20:45:34Z</time>
      </trkpt>
      <trkpt lat="45.94717" lon="3.06177">
        <ele>514</ele>
        <time>2015-10-17T20:47:34Z</time>
      </trkpt>
      <trkpt lat="45.94748" lon="3.06185">
        <ele>511</ele>
        <time>2015-10-17T20:49:34Z</time>
      </trkpt>
      <trkpt lat="45.94766" lon="3.06193">
        <ele>507</ele>
        <time>2015-10-17T20:51:34Z</time>
      </trkpt>
      <trkpt lat="45.94781" lon="3.06204">
        <ele>504</ele>
        <time>2015-10-17T20:53:34Z</time>
      </trkpt>
      <trkpt lat="45.94795" lon="3.06236">
        <ele>503</ele>
        <time>2015-10-17T20:55:34Z</time>
      </trkpt>
      <trkpt lat="45.94809" lon="3.06269">
        <ele>502</ele>
        <time>2015-10-17T20:57:34Z</time>
      </trkpt>
      <trkpt lat="45.94822" lon="3.06305">
        <ele>501</ele>
        <time>2015-10-17T20:59:34Z</time>
      </trkpt>
      <trkpt lat="45.94813" lon="3.06248">
        <ele>499</ele>
        <time>2015-10-17T21:01:34Z</time>
      </trkpt>
      <trkpt lat="45.94808" lon="3.06209">
        <ele>497</ele>
        <time>2015-10-17T21:03:34Z</time>
      </trkpt>
      <trkpt lat="45.94804" lon="3.06178">
        <ele>494</ele>
        <time>2015-10-17T21:05:34Z</time>
      </trkpt>
      <trkpt lat="45.9479" lon="3.06162">
        <ele>497</ele>
        <time>2015-10-17T21:07:34Z</time>
      </trkpt>
      <trkpt lat="45.94776" lon="3.06152">
        <ele>500</ele>
        <time>2015-10-17T21:09:34Z</time>
      </trkpt>
      <trkpt lat="45.9476" lon="3.06147">
        <ele>505</ele>
        <time>2015-10-17T21:11:34Z</time>
      </trkpt>
      <trkpt lat="45.94772" lon="3.06134">
        <ele>501</ele>
        <time>2015-10-17T21:13:34Z</time>
      </trkpt>
      <trkpt lat="45.94796" lon="3.0614">
        <ele>494</ele>
        <time>2015-10-17T21:15:34Z</time>
      </trkpt>
      <trkpt lat="45.94809" lon="3.06145">
        <ele>490</ele>
        <time>2015-10-17T21:17:34Z</time>
      </trkpt>
      <trkpt lat="45.94816" lon="3.06165">
        <ele>490</ele>
        <time>2015-10-17T21:19:34Z</time>
      </trkpt>
      <trkpt lat="45.94817" lon="3.06189">
        <ele>492</ele>
        <time>2015-10-17T21:21:34Z</time>
      </trkpt>
      <trkpt lat="45.94836" lon="3.0622">
        <ele>489</ele>
        <time>2015-10-17T21:23:34Z</time>
      </trkpt>
      <trkpt lat="45.94855" lon="3.06263">
        <ele>486</ele>
        <time>2015-10-17T21:25:34Z</time>
      </trkpt>
      <trkpt lat="45.94887" lon="3.06337">
        <ele>478</ele>
        <time>2015-10-17T21:27:34Z</time>
      </trkpt>
      <trkpt lat="45.94909" lon="3.06383">
        <ele>476</ele>
        <time>2015-10-17T21:29:34Z</time>
      </trkpt>
      <trkpt lat="45.94939" lon="3.06372">
        <ele>469</ele>
        <time>2015-10-17T21:31:34Z</time>
      </trkpt>
      <trkpt lat="45.94958" lon="3.06396">
        <ele>466</ele>
        <time>2015-10-17T21:33:34Z</time>
      </trkpt>
      <trkpt lat="45.94973" lon="3.06421">
        <ele>462</ele>
        <time>2015-10-17T21:35:34Z</time>
      </trkpt>
      <trkpt lat="45.94991" lon="3.06445">
        <ele>457</ele>
        <time>2015-10-17T21:37:34Z</time>
      </trkpt>
      <trkpt lat="45.94998" lon="3.06472">
        <ele>455</ele>
        <time>2015-10-17T21:39:34Z</time>
      </trkpt>
      <trkpt lat="45.95001" lon="3.06511">
        <ele>455</ele>
        <time>2015-10-17T21:41:34Z</time>
      </trkpt>
      <trkpt lat="45.95012" lon="3.06547">
        <ele>457</ele>
        <time>2015-10-17T21:43:34Z</time>
      </trkpt>
      <trkpt lat="45.9502" lon="3.06614">
        <ele>457</ele>
        <time>2015-10-17T21:45:34Z</time>
      </trkpt>
      <trkpt lat="45.95022" lon="3.06671">
        <ele>458</ele>
        <time>2015-10-17T21:47:34Z</time>
      </trkpt>
      <trkpt lat="45.95033" lon="3.06714">
        <ele>458</ele>
        <time>2015-10-17T21:49:34Z</time>
      </trkpt>
      <trkpt lat="45.95035" lon="3.0675">
        <ele>458</ele>
        <time>2015-10-17T21:51:34Z</time>
      </trkpt>
      <trkpt lat="45.95039" lon="3.06809">
        <ele>454</ele>
        <time>2015-10-17T21:53:34Z</time>
      </trkpt>
      <trkpt lat="45.95042" lon="3.06879">
        <ele>447</ele>
        <time>2015-10-17T21:55:34Z</time>
      </trkpt>
      <trkpt lat="45.95043" lon="3.06927">
        <ele>441</ele>
        <time>2015-10-17T21:57:34Z</time>
      </trkpt>
      <trkpt lat="45.95045" lon="3.06955">
        <ele>438</ele>
        <time>2015-10-17T21:59:34Z</time>
      </trkpt>
      <trkpt lat="45.95042" lon="3.0702">
        <ele>433</ele>
        <time>2015-10-17T22:01:34Z</time>
      </trkpt>
      <trkpt lat="45.95054" lon="3.07016">
        <ele>432</ele>
        <time>2015-10-17T22:03:34Z</time>
      </trkpt>
      <trkpt lat="45.95073" lon="3.06996">
        <ele>431</ele>
        <time>2015-10-17T22:05:34Z</time>
      </trkpt>
      <trkpt lat="45.95091" lon="3.06974">
        <ele>434</ele>
        <time>2015-10-17T22:07:34Z</time>
      </trkpt>
      <trkpt lat="45.95109" lon="3.06969">
        <ele>437</ele>
        <time>2015-10-17T22:09:34Z</time>
      </trkpt>
      <trkpt lat="45.95126" lon="3.06989">
        <ele>436</ele>
        <time>2015-10-17T22:11:34Z</time>
      </trkpt>
      <trkpt lat="45.95139" lon="3.07006">
        <ele>435</ele>
        <time>2015-10-17T22:13:34Z</time>
      </trkpt>
      <trkpt lat="45.95157" lon="3.07012">
        <ele>437</ele>
        <time>2015-10-17T22:15:34Z</time>
      </trkpt>
      <trkpt lat="45.95174" lon="3.07009">
        <ele>439</ele>
        <time>2015-10-17T22:17:34Z</time>
      </trkpt>
      <trkpt lat="45.95192" lon="3.07022">
        <ele>440</ele>
        <time>2015-10-17T22:19:34Z</time>
      </trkpt>
      <trkpt lat="45.95201" lon="3.07053">
        <ele>439</ele>
        <time>2015-10-17T22:21:34Z</time>
      </trkpt>
      <trkpt lat="45.95209" lon="3.07071">
        <ele>439</ele>
        <time>2015-10-17T22:23:34Z</time>
      </trkpt>
      <trkpt lat="45.95225" lon="3.07075">
        <ele>441</ele>
        <time>2015-10-17T22:25:34Z</time>
      </trkpt>
      <trkpt lat="45.95283" lon="3.07055">
        <ele>452</ele>
        <time>2015-10-17T22:27:34Z</time>
      </trkpt>
      <trkpt lat="45.95309" lon="3.07057">
        <ele>456</ele>
        <time>2015-10-17T22:29:34Z</time>
      </trkpt>
      <trkpt lat="45.95321" lon="3.07057">
        <ele>458</ele>
        <time>2015-10-17T22:31:34Z</time>
      </trkpt>
      <trkpt lat="45.95336" lon="3.07037">
        <ele>460</ele>
        <time>2015-10-17T22:33:34Z</time>
      </trkpt>
      <trkpt lat="45.95367" lon="3.07031">
        <ele>464</ele>
        <time>2015-10-17T22:35:34Z</time>
      </trkpt>
      <trkpt lat="45.95377" lon="3.07055">
        <ele>464</ele>
        <time>2015-10-17T22:37:34Z</time>
      </trkpt>
      <trkpt lat="45.95389" lon="3.07078">
        <ele>464</ele>
        <time>2015-10-17T22:39:34Z</time>
      </trkpt>
      <trkpt lat="45.95402" lon="3.07092">
        <ele>464</ele>
        <time>2015-10-17T22:41:34Z</time>
      </trkpt>
      <trkpt lat="45.9542" lon="3.07103">
        <ele>466</ele>
        <time>2015-10-17T22:43:34Z</time>
      </trkpt>
      <trkpt lat="45.95446" lon="3.07107">
        <ele>469</ele>
        <time>2015-10-17T22:45:34Z</time>
      </trkpt>
      <trkpt lat="45.95468" lon="3.07125">
        <ele>470</ele>
        <time>2015-10-17T22:47:34Z</time>
      </trkpt>
      <trkpt lat="45.9549" lon="3.07138">
        <ele>472</ele>
        <time>2015-10-17T22:49:34Z</time>
      </trkpt>
      <trkpt lat="45.95504" lon="3.07134">
        <ele>474</ele>
        <time>2015-10-17T22:51:34Z</time>
      </trkpt>
      <trkpt lat="45.95537" lon="3.07085">
        <ele>480</ele>
        <time>2015-10-17T22:53:34Z</time>
      </trkpt>
      <trkpt lat="45.95547" lon="3.07068">
        <ele>483</ele>
        <time>2015-10-17T22:55:34Z</time>
      </trkpt>
      <trkpt lat="45.95549" lon="3.07053">
        <ele>484</ele>
        <time>2015-10-17T22:57:34Z</time>
      </trkpt>
      <trkpt lat="45.95556" lon="3.07005">
        <ele>489</ele>
        <time>2015-10-17T22:59:34Z</time>
      </trkpt>
      <trkpt lat="45.95547" lon="3.06979">
        <ele>490</ele>
        <time>2015-10-17T23:01:34Z</time>
      </trkpt>
      <trkpt lat="45.95543" lon="3.06953">
        <ele>493</ele>
        <time>2015-10-17T23:03:34Z</time>
      </trkpt>
      <trkpt lat="45.95529" lon="3.06929">
        <ele>493</ele>
        <time>2015-10-17T23:05:34Z</time>
      </trkpt>
      <trkpt lat="45.95528" lon="3.06888">
        <ele>497</ele>
        <time>2015-10-17T23:07:34Z</time>
      </trkpt>
      <trkpt lat="45.95532" lon="3.06868">
        <ele>499</ele>
        <time>2015-10-17T23:09:34Z</time>
      </trkpt>
      <trkpt lat="45.95538" lon="3.06839">
        <ele>502</ele>
        <time>2015-10-17T23:11:34Z</time>
      </trkpt>
      <trkpt lat="45.95539" lon="3.06805">
        <ele>505</ele>
        <time>2015-10-17T23:13:34Z</time>
      </trkpt>
      <trkpt lat="45.95533" lon="3.06768">
        <ele>506</ele>
        <time>2015-10-17T23:15:34Z</time>
      </trkpt>
      <trkpt lat="45.95524" lon="3.06736">
        <ele>508</ele>
        <time>2015-10-17T23:17:34Z</time>
      </trkpt>
      <trkpt lat="45.95515" lon="3.06728">
        <ele>508</ele>
        <time>2015-10-17T23:19:34Z</time>
      </trkpt>
      <trkpt lat="45.95491" lon="3.06706">
        <ele>509</ele>
        <time>2015-10-17T23:21:34Z</time>
      </trkpt>
      <trkpt lat="45.95477" lon="3.06694">
        <ele>510</ele>
        <time>2015-10-17T23:23:34Z</time>
      </trkpt>
      <trkpt lat="45.95471" lon="3.06671">
        <ele>514</ele>
        <time>2015-10-17T23:25:34Z</time>
      </trkpt>
      <trkpt lat="45.95468" lon="3.06649">
        <ele>517</ele>
        <time>2015-10-17T23:27:34Z</time>
      </trkpt>
      <trkpt lat="45.95463" lon="3.06622">
        <ele>522</ele>
        <time>2015-10-17T23:29:34Z</time>
      </trkpt>
      <trkpt lat="45.95453" lon="3.06603">
        <ele>524</ele>
        <time>2015-10-17T23:31:34Z</time>
      </trkpt>
      <trkpt lat="45.95451" lon="3.06584">
        <ele>528</ele>
        <time>2015-10-17T23:33:34Z</time>
      </trkpt>
      <trkpt lat="45.95462" lon="3.06564">
        <ele>530</ele>
        <time>2015-10-17T23:35:34Z</time>
      </trkpt>
      <trkpt lat="45.95474" lon="3.06551">
        <ele>532</ele>
        <time>2015-10-17T23:37:34Z</time>
      </trkpt>
      <trkpt lat="45.95491" lon="3.06528">
        <ele>535</ele>
        <time>2015-10-17T23:39:34Z</time>
      </trkpt>
      <trkpt lat="45.95495" lon="3.06515">
        <ele>536</ele>
        <time>2015-10-17T23:41:34Z</time>
      </trkpt>
      <trkpt lat="45.95472" lon="3.06529">
        <ele>535</ele>
        <time>2015-10-17T23:43:34Z</time>
      </trkpt>
      <trkpt lat="45.95471" lon="3.0651">
        <ele>537</ele>
        <time>2015-10-17T23:45:34Z</time>
      </trkpt>
      <trkpt lat="45.95473" lon="3.0649">
        <ele>538</ele>
        <time>2015-10-17T23:47:34Z</time>
      </trkpt>
      <trkpt lat="45.95476" lon="3.06473">
        <ele>540</ele>
        <time>2015-10-17T23:49:34Z</time>
      </trkpt>
      <trkpt lat="45.95477" lon="3.06439">
        <ele>543</ele>
        <time>2015-10-17T23:51:34Z</time>
      </trkpt>
      <trkpt lat="45.95484" lon="3.06323">
        <ele>545</ele>
        <time>2015-10-17T23:53:34Z</time>
      </trkpt>
      <trkpt lat="45.9548" lon="3.06251">
        <ele>547</ele>
        <time>2015-10-17T23:55:34Z</time>
      </trkpt>
      <trkpt lat="45.95478" lon="3.06151">
        <ele>551</ele>
        <time>2015-10-17T23:57:34Z</time>
      </trkpt>
      <trkpt lat="45.95479" lon="3.0597">
        <ele>562</ele>
        <time>2015-10-17T23:59:34Z</time>
      </trkpt>
      <trkpt lat="45.95428" lon="3.05918">
        <ele>565</ele>
        <time>2015-10-18T00:01:34Z</time>
      </trkpt>
      <trkpt lat="45.95411" lon="3.05884">
        <ele>567</ele>
        <time>2015-10-18T00:03:34Z</time>
      </trkpt>
      <trkpt lat="45.95404" lon="3.05866">
        <ele>569</ele>
        <time>2015-10-18T00:05:34Z</time>
      </trkpt>
      <trkpt lat="45.95374" lon="3.05833">
        <ele>573</ele>
        <time>2015-10-18T00:07:34Z</time>
      </trkpt>
      <trkpt lat="45.95353" lon="3.0582">
        <ele>575</ele>
        <time>2015-10-18T00:09:34Z</time>
      </trkpt>
      <trkpt lat="45.95331" lon="3.05813">
        <ele>577</ele>
        <time>2015-10-18T00:11:34Z</time>
      </trkpt>
      <trkpt lat="45.95312" lon="3.05802">
        <ele>579</ele>
        <time>2015-10-18T00:13:34Z</time>
      </trkpt>
      <trkpt lat="45.95294" lon="3.05784">
        <ele>581</ele>
        <time>2015-10-18T00:15:34Z</time>
      </trkpt>
      <trkpt lat="45.95278" lon="3.05745">
        <ele>586</ele>
        <time>2015-10-18T00:17:34Z</time>
      </trkpt>
      <trkpt lat="45.95262" lon="3.05713">
        <ele>590</ele>
        <time>2015-10-18T00:19:34Z</time>
      </trkpt>
      <trkpt lat="45.95252" lon="3.05691">
        <ele>593</ele>
        <time>2015-10-18T00:21:34Z</time>
      </trkpt>
      <trkpt lat="45.95242" lon="3.05662">
        <ele>595</ele>
        <time>2015-10-18T00:23:34Z</time>
      </trkpt>
      <trkpt lat="45.95234" lon="3.0561">
        <ele>595</ele>
        <time>2015-10-18T00:25:34Z</time>
      </trkpt>
      <trkpt lat="45.95224" lon="3.05561">
        <ele>593</ele>
        <time>2015-10-18T00:27:34Z</time>
      </trkpt>
      <trkpt lat="45.9522" lon="3.05529">
        <ele>590</ele>
        <time>2015-10-18T00:29:34Z</time>
      </trkpt>
      <trkpt lat="45.9522" lon="3.05488">
        <ele>588</ele>
        <time>2015-10-18T00:31:34Z</time>
      </trkpt>
      <trkpt lat="45.95222" lon="3.05443">
        <ele>586</ele>
        <time>2015-10-18T00:33:34Z</time>
      </trkpt>
      <trkpt lat="45.95232" lon="3.05419">
        <ele>588</ele>
        <time>2015-10-18T00:35:34Z</time>
      </trkpt>
      <trkpt lat="45.95242" lon="3.0536">
        <ele>588</ele>
        <time>2015-10-18T00:37:34Z</time>
      </trkpt>
      <trkpt lat="45.95242" lon="3.05315">
        <ele>587</ele>
        <time>2015-10-18T00:39:34Z</time>
      </trkpt>
      <trkpt lat="45.95242" lon="3.05242">
        <ele>588</ele>
        <time>2015-10-18T00:41:34Z</time>
      </trkpt>
      <trkpt lat="45.95241" lon="3.05212">
        <ele>590</ele>
        <time>2015-10-18T00:43:34Z</time>
      </trkpt>
      <trkpt lat="45.95223" lon="3.05202">
        <ele>588</ele>
        <time>2015-10-18T00:45:34Z</time>
      </trkpt>
      <trkpt lat="45.95199" lon="3.05221">
        <ele>583</ele>
        <time>2015-10-18T00:47:34Z</time>
      </trkpt>
      <trkpt lat="45.95183" lon="3.05228">
        <ele>580</ele>
        <time>2015-10-18T00:49:34Z</time>
      </trkpt>
      <trkpt lat="45.95176" lon="3.05224">
        <ele>579</ele>
        <time>2015-10-18T00:51:34Z</time>
      </trkpt>
      <trkpt lat="45.95168" lon="3.0521">
        <ele>580</ele>
        <time>2015-10-18T00:53:34Z</time>
      </trkpt>
      <trkpt lat="45.95163" lon="3.05194">
        <ele>581</ele>
        <time>2015-10-18T00:55:34Z</time>
      </trkpt>
      <trkpt lat="45.95151" lon="3.05165">
        <ele>583</ele>
        <time>2015-10-18T00:57:34Z</time>
      </trkpt>
      <trkpt lat="45.95137" lon="3.0513">
        <ele>585</ele>
        <time>2015-10-18T00:59:34Z</time>
      </trkpt>
      <trkpt lat="45.95113" lon="3.05096">
        <ele>585</ele>
        <time>2015-10-18T01:01:34Z</time>
      </trkpt>
      <trkpt lat="45.95097" lon="3.05074">
        <ele>584</ele>
        <time>2015-10-18T01:03:34Z</time>
      </trkpt>
      <trkpt lat="45.95076" lon="3.05044">
        <ele>584</ele>
        <time>2015-10-18T01:05:34Z</time>
      </trkpt>
      <trkpt lat="45.95074" lon="3.05034">
        <ele>584</ele>
        <time>2015-10-18T01:07:34Z</time>
      </trkpt>
      <trkpt lat="45.95079" lon="3.05019">
        <ele>586</ele>
        <time>2015-10-18T01:09:34Z</time>
      </trkpt>
      <trkpt lat="45.95095" lon="3.04997">
        <ele>589</ele>
        <time>2015-10-18T01:11:34Z</time>
      </trkpt>
      <trkpt lat="45.95078" lon="3.0497">
        <ele>589</ele>
        <time>2015-10-18T01:13:34Z</time>
      </trkpt>
      <trkpt lat="45.9506" lon="3.04951">
        <ele>589</ele>
        <time>2015-10-18T01:15:34Z</time>
      </trkpt>
      <trkpt lat="45.95046" lon="3.04926">
        <ele>589</ele>
        <time>2015-10-18T01:17:34Z</time>
      </trkpt>
      <trkpt lat="45.95018" lon="3.04877">
        <ele>586</ele>
        <time>2015-10-18T01:19:34Z</time>
      </trkpt>
      <trkpt lat="45.94985" lon="3.0481">
        <ele>584</ele>
        <time>2015-10-18T01:21:34Z</time>
      </trkpt>
      <trkpt lat="45.94969" lon="3.04766">
        <ele>583</ele>
        <time>2015-10-18T01:23:34Z</time>
      </trkpt>
      <trkpt lat="45.94955" lon="3.04722">
        <ele>583</ele>
        <time>2015-10-18T01:25:34Z</time>
      </trkpt>
      <trkpt lat="45.94938" lon="3.04682">
        <ele>582</ele>
        <time>2015-10-18T01:27:34Z</time>
      </trkpt>
      <trkpt lat="45.94923" lon="3.04652">
        <ele>582</ele>
        <time>2015-10-18T01:29:34Z</time>
      </trkpt>
      <trkpt lat="45.94899" lon="3.046">
        <ele>584</ele>
        <time>2015-10-18T01:31:34Z</time>
      </trkpt>
      <trkpt lat="45.94881" lon="3.04565">
        <ele>585</ele>
        <time>2015-10-18T01:33:34Z</time>
      </trkpt>
      <trkpt lat="45.94862" lon="3.04514">
        <ele>586</ele>
        <time>2015-10-18T01:35:34Z</time>
      </trkpt>
      <trkpt lat="45.94851" lon="3.04433">
        <ele>591</ele>
        <time>2015-10-18T01:37:34Z</time>
      </trkpt>
      <trkpt lat="45.94851" lon="3.04377">
        <ele>593</ele>
        <time>2015-10-18T01:39:34Z</time>
      </trkpt>
      <trkpt lat="45.94842" lon="3.04314">
        <ele>592</ele>
        <time>2015-10-18T01:41:34Z</time>
      </trkpt>
      <trkpt lat="45.94839" lon="3.04259">
        <ele>588</ele>
        <time>2015-10-18T01:43:34Z</time>
      </trkpt>
      <trkpt lat="45.94832" lon="3.04218">
        <ele>585</ele>
        <time>2015-10-18T01:45:34Z</time>
      </trkpt>
      <trkpt lat="45.9483" lon="3.04186">
        <ele>582</ele>
        <time>2015-10-18T01:47:34Z</time>
      </trkpt>
      <trkpt lat="45.94832" lon="3.0415">
        <ele>581</ele>
        <time>2015-10-18T01:49:34Z</time>
      </trkpt>
      <trkpt lat="45.94827" lon="3.04111">
        <ele>581</ele>
        <time>2015-10-18T01:51:34Z</time>
      </trkpt>
      <trkpt lat="45.94818" lon="3.04081">
        <ele>582</ele>
        <time>2015-10-18T01:53:34Z</time>
      </trkpt>
      <trkpt lat="45.94804" lon="3.04085">
        <ele>584</ele>
        <time>2015-10-18T01:55:34Z</time>
      </trkpt>
      <trkpt lat="45.94781" lon="3.04103">
        <ele>586</ele>
        <time>2015-10-18T01:57:34Z</time>
      </trkpt>
      <trkpt lat="45.94767" lon="3.04116">
        <ele>585</ele>
        <time>2015-10-18T01:59:34Z</time>
      </trkpt>
      <trkpt lat="45.94744" lon="3.04126">
        <ele>585</ele>
        <time>2015-10-18T02:01:34Z</time>
      </trkpt>
      <trkpt lat="45.94724" lon="3.04127">
        <ele>587</ele>
        <time>2015-10-18T02:03:34Z</time>
      </trkpt>
      <trkpt lat="45.94699" lon="3.04127">
        <ele>590</ele>
        <time>2015-10-18T02:05:34Z</time>
      </trkpt>
      <trkpt lat="45.94672" lon="3.04133">
        <ele>592</ele>
        <time>2015-10-18T02:07:34Z</time>
      </trkpt>
      <trkpt lat="45.94668" lon="3.04114">
        <ele>594</ele>
        <time>2015-10-18T02:09:34Z</time>
      </trkpt>
      <trkpt lat="45.94672" lon="3.04087">
        <ele>597</ele>
        <time>2015-10-18T02:11:34Z</time>
      </trkpt>
      <trkpt lat="45.94678" lon="3.0405">
        <ele>600</ele>
        <time>2015-10-18T02:13:34Z</time>
      </trkpt>
      <trkpt lat="45.94678" lon="3.04007">
        <ele>605</ele>
        <time>2015-10-18T02:15:34Z</time>
      </trkpt>
      <trkpt lat="45.9464" lon="3.03921">
        <ele>612</ele>
        <time>2015-10-18T02:17:34Z</time>
      </trkpt>
      <trkpt lat="45.94617" lon="3.03876">
        <ele>615</ele>
        <time>2015-10-18T02:19:34Z</time>
      </trkpt>
      <trkpt lat="45.94593" lon="3.03832">
        <ele>617</ele>
        <time>2015-10-18T02:21:34Z</time>
      </trkpt>
      <trkpt lat="45.9456" lon="3.03742">
        <ele>617</ele>
        <time>2015-10-18T02:23:34Z</time>
      </trkpt>
      <trkpt lat="45.94547" lon="3.03736">
        <ele>615</ele>
        <time>2015-10-18T02:25:34Z</time>
      </trkpt>
      <trkpt lat="45.94533" lon="3.03715">
        <ele>613</ele>
        <time>2015-10-18T02:27:34Z</time>
      </trkpt>
      <trkpt lat="45.94528" lon="3.03682">
        <ele>613</ele>
        <time>2015-10-18T02:29:34Z</time>
      </trkpt>
      <trkpt lat="45.94524" lon="3.03644">
        <ele>614</ele>
        <time>2015-10-18T02:31:34Z</time>
      </trkpt>
      <trkpt lat="45.94517" lon="3.03616">
        <ele>613</ele>
        <time>2015-10-18T02:33:34Z</time>
      </trkpt>
      <trkpt lat="45.94512" lon="3.03574">
        <ele>614</ele>
        <time>2015-10-18T02:35:34Z</time>
      </trkpt>
      <trkpt lat="45.94497" lon="3.03536">
        <ele>615</ele>
        <time>2015-10-18T02:37:34Z</time>
      </trkpt>
      <trkpt lat="45.9448" lon="3.03529">
        <ele>617</ele>
        <time>2015-10-18T02:39:34Z</time>
      </trkpt>
      <trkpt lat="45.94463" lon="3.03531">
        <ele>619</ele>
        <time>2015-10-18T02:41:34Z</time>
      </trkpt>
      <trkpt lat="45.94453" lon="3.0355">
        <ele>619</ele>
        <time>2015-10-18T02:43:34Z</time>
      </trkpt>
      <trkpt lat="45.94442" lon="3.03578">
        <ele>617</ele>
        <time>2015-10-18T02:45:34Z</time>
      </trkpt>
      <trkpt lat="45.94432" lon="3.0361">
        <ele>616</ele>
        <time>2015-10-18T02:47:34Z</time>
      </trkpt>
      <trkpt lat="45.94432" lon="3.03647">
        <ele>615</ele>
        <time>2015-10-18T02:49:34Z</time>
      </trkpt>
      <trkpt lat="45.94435" lon="3.03668">
        <ele>614</ele>
        <time>2015-10-18T02:51:34Z</time>
      </trkpt>
      <trkpt lat="45.94427" lon="3.03679">
        <ele>614</ele>
        <time>2015-10-18T02:53:34Z</time>
      </trkpt>
      <trkpt lat="45.94413" lon="3.03681">
        <ele>614</ele>
        <time>2015-10-18T02:55:34Z</time>
      </trkpt>
      <trkpt lat="45.94379" lon="3.03676">
        <ele>615</ele>
        <time>2015-10-18T02:57:34Z</time>
      </trkpt>
      <trkpt lat="45.94338" lon="3.03672">
        <ele>617</ele>
        <time>2015-10-18T02:59:34Z</time>
      </trkpt>
      <trkpt lat="45.94321" lon="3.03677">
        <ele>617</ele>
        <time>2015-10-18T03:01:34Z</time>
      </trkpt>
      <trkpt lat="45.94302" lon="3.03684">
        <ele>618</ele>
        <time>2015-10-18T03:03:34Z</time>
      </trkpt>
      <trkpt lat="45.94271" lon="3.03658">
        <ele>620</ele>
        <time>2015-10-18T03:05:34Z</time>
      </trkpt>
      <trkpt lat="45.94261" lon="3.03647">
        <ele>621</ele>
        <time>2015-10-18T03:07:34Z</time>
      </trkpt>
      <trkpt lat="45.9425" lon="3.03671">
        <ele>621</ele>
        <time>2015-10-18T03:09:34Z</time>
      </trkpt>
      <trkpt lat="45.94256" lon="3.03697">
        <ele>621</ele>
        <time>2015-10-18T03:11:34Z</time>
      </trkpt>
      <trkpt lat="45.94252" lon="3.03725">
        <ele>621</ele>
        <time>2015-10-18T03:13:34Z</time>
      </trkpt>
      <trkpt lat="45.9424" lon="3.03762">
        <ele>622</ele>
        <time>2015-10-18T03:15:34Z</time>
      </trkpt>
      <trkpt lat="45.94227" lon="3.03793">
        <ele>623</ele>
        <time>2015-10-18T03:17:34Z</time>
      </trkpt>
      <trkpt lat="45.94213" lon="3.0381">
        <ele>624</ele>
        <time>2015-10-18T03:19:34Z</time>
      </trkpt>
      <trkpt lat="45.94202" lon="3.03828">
        <ele>625</ele>
        <time>2015-10-18T03:21:34Z</time>
      </trkpt>
      <trkpt lat="45.94187" lon="3.03845">
        <ele>626</ele>
        <time>2015-10-18T03:23:34Z</time>
      </trkpt>
      <trkpt lat="45.94173" lon="3.03865">
        <ele>627</ele>
        <time>2015-10-18T03:25:34Z</time>
      </trkpt>
      <trkpt lat="45.94157" lon="3.03891">
        <ele>627</ele>
        <time>2015-10-18T03:27:34Z</time>
      </trkpt>
      <trkpt lat="45.94138" lon="3.03931">
        <ele>627</ele>
        <time>2015-10-18T03:29:34Z</time>
      </trkpt>
      <trkpt lat="45.94122" lon="3.03961">
        <ele>627</ele>
        <time>2015-10-18T03:31:34Z</time>
      </trkpt>
      <trkpt lat="45.94099" lon="3.0397">
        <ele>628</ele>
        <time>2015-10-18T03:33:34Z</time>
      </trkpt>
      <trkpt lat="45.94079" lon="3.03997">
        <ele>629</ele>
        <time>2015-10-18T03:35:34Z</time>
      </trkpt>
      <trkpt lat="45.94064" lon="3.0404">
        <ele>629</ele>
        <time>2015-10-18T03:37:34Z</time>
      </trkpt>
      <trkpt lat="45.94049" lon="3.04083">
        <ele>629</ele>
        <time>2015-10-18T03:39:34Z</time>
      </trkpt>
      <trkpt lat="45.94032" lon="3.0412">
        <ele>628</ele>
        <time>2015-10-18T03:41:34Z</time>
      </trkpt>
      <trkpt lat="45.94008" lon="3.04142">
        <ele>630</ele>
        <time>2015-10-18T03:43:34Z</time>
      </trkpt>
      <trkpt lat="45.93987" lon="3.04172">
        <ele>632</ele>
        <time>2015-10-18T03:45:34Z</time>
      </trkpt>
      <trkpt lat="45.93988" lon="3.04203">
        <ele>633</ele>
        <time>2015-10-18T03:47:34Z</time>
      </trkpt>
      <trkpt lat="45.93993" lon="3.04246">
        <ele>634</ele>
        <time>2015-10-18T03:49:34Z</time>
      </trkpt>
      <trkpt lat="45.93993" lon="3.0429">
        <ele>637</ele>
        <time>2015-10-18T03:51:34Z</time>
      </trkpt>
      <trkpt lat="45.94002" lon="3.04312">
        <ele>638</ele>
        <time>2015-10-18T03:53:34Z</time>
      </trkpt>
      <trkpt lat="45.93995" lon="3.04352">
        <ele>640</ele>
        <time>2015-10-18T03:55:34Z</time>
      </trkpt>
      <trkpt lat="45.93991" lon="3.04395">
        <ele>640</ele>
        <time>2015-10-18T03:57:34Z</time>
      </trkpt>
      <trkpt lat="45.93977" lon="3.04427">
        <ele>640</ele>
        <time>2015-10-18T03:59:34Z</time>
      </trkpt>
      <trkpt lat="45.93949" lon="3.04451">
        <ele>641</ele>
        <time>2015-10-18T04:01:34Z</time>
      </trkpt>
      <trkpt lat="45.93938" lon="3.04469">
        <ele>641</ele>
        <time>2015-10-18T04:03:34Z</time>
      </trkpt>
      <trkpt lat="45.9389" lon="3.04542">
        <ele>637</ele>
        <time>2015-10-18T04:05:34Z</time>
      </trkpt>
      <trkpt lat="45.93869" lon="3.0457">
        <ele>636</ele>
        <time>2015-10-18T04:07:34Z</time>
      </trkpt>
      <trkpt lat="45.93851" lon="3.04599">
        <ele>636</ele>
        <time>2015-10-18T04:09:34Z</time>
      </trkpt>
      <trkpt lat="45.93847" lon="3.04638">
        <ele>636</ele>
        <time>2015-10-18T04:11:34Z</time>
      </trkpt>
      <trkpt lat="45.93846" lon="3.04702">
        <ele>637</ele>
        <time>2015-10-18T04:13:34Z</time>
      </trkpt>
      <trkpt lat="45.93843" lon="3.04749">
        <ele>638</ele>
        <time>2015-10-18T04:15:34Z</time>
      </trkpt>
      <trkpt lat="45.93849" lon="3.04775">
        <ele>639</ele>
        <time>2015-10-18T04:17:34Z</time>
      </trkpt>
      <trkpt lat="45.93851" lon="3.04824">
        <ele>640</ele>
        <time>2015-10-18T04:19:34Z</time>
      </trkpt>
      <trkpt lat="45.93853" lon="3.04869">
        <ele>640</ele>
        <time>2015-10-18T04:21:34Z</time>
      </trkpt>
      <trkpt lat="45.93855" lon="3.04925">
        <ele>640</ele>
        <time>2015-10-18T04:23:34Z</time>
      </trkpt>
      <trkpt lat="45.93854" lon="3.04964">
        <ele>638</ele>
        <time>2015-10-18T04:25:34Z</time>
      </trkpt>
      <trkpt lat="45.93859" lon="3.05003">
        <ele>637</ele>
        <time>2015-10-18T04:27:34Z</time>
      </trkpt>
      <trkpt lat="45.93878" lon="3.05043">
        <ele>637</ele>
        <time>2015-10-18T04:29:34Z</time>
      </trkpt>
      <trkpt lat="45.93892" lon="3.0507">
        <ele>638</ele>
        <time>2015-10-18T04:31:34Z</time>
      </trkpt>
      <trkpt lat="45.93905" lon="3.05099">
        <ele>637</ele>
        <time>2015-10-18T04:33:34Z</time>
      </trkpt>
      <trkpt lat="45.93908" lon="3.05128">
        <ele>634</ele>
        <time>2015-10-18T04:35:34Z</time>
      </trkpt>
      <trkpt lat="45.93906" lon="3.05153">
        <ele>631</ele>
        <time>2015-10-18T04:37:34Z</time>
      </trkpt>
      <trkpt lat="45.93891" lon="3.05147">
        <ele>629</ele>
        <time>2015-10-18T04:39:34Z</time>
      </trkpt>
      <trkpt lat="45.93855" lon="3.05121">
        <ele>628</ele>
        <time>2015-10-18T04:41:34Z</time>
      </trkpt>
      <trkpt lat="45.93829" lon="3.05121">
        <ele>624</ele>
        <time>2015-10-18T04:43:34Z</time>
      </trkpt>
      <trkpt lat="45.93809" lon="3.05133">
        <ele>618</ele>
        <time>2015-10-18T04:45:34Z</time>
      </trkpt>
      <trkpt lat="45.93792" lon="3.05146">
        <ele>613</ele>
        <time>2015-10-18T04:47:34Z</time>
      </trkpt>
      <trkpt lat="45.93772" lon="3.05154">
        <ele>609</ele>
        <time>2015-10-18T04:49:34Z</time>
      </trkpt>
      <trkpt lat="45.93733" lon="3.05146">
        <ele>601</ele>
        <time>2015-10-18T04:51:34Z</time>
      </trkpt>
      <trkpt lat="45.93718" lon="3.05118">
        <ele>599</ele>
        <time>2015-10-18T04:53:34Z</time>
      </trkpt>
      <trkpt lat="45.93714" lon="3.05082">
        <ele>599</ele>
        <time>2015-10-18T04:55:34Z</time>
      </trkpt>
      <trkpt lat="45.93704" lon="3.05063">
        <ele>596</ele>
        <time>2015-10-18T04:57:34Z</time>
      </trkpt>
      <trkpt lat="45.93682" lon="3.0505">
        <ele>590</ele>
        <time>2015-10-18T04:59:34Z</time>
      </trkpt>
      <trkpt lat="45.93651" lon="3.05046">
        <ele>581</ele>
        <time>2015-10-18T05:01:34Z</time>
      </trkpt>
      <trkpt lat="45.93625" lon="3.05053">
        <ele>573</ele>
        <time>2015-10-18T05:03:34Z</time>
      </trkpt>
      <trkpt lat="45.93598" lon="3.05059">
        <ele>564</ele>
        <time>2015-10-18T05:05:34Z</time>
      </trkpt>
      <trkpt lat="45.93583" lon="3.05085">
        <ele>561</ele>
        <time>2015-10-18T05:07:34Z</time>
      </trkpt>
      <trkpt lat="45.93569" lon="3.05123">
        <ele>558</ele>
        <time>2015-10-18T05:09:34Z</time>
      </trkpt>
      <trkpt lat="45.93565" lon="3.05151">
        <ele>558</ele>
        <time>2015-10-18T05:11:34Z</time>
      </trkpt>
      <trkpt lat="45.93576" lon="3.05195">
        <ele>559</ele>
        <time>2015-10-18T05:13:34Z</time>
      </trkpt>
      <trkpt lat="45.93616" lon="3.0522">
        <ele>566</ele>
        <time>2015-10-18T05:15:34Z</time>
      </trkpt>
      <trkpt lat="45.93636" lon="3.05219">
        <ele>571</ele>
        <time>2015-10-18T05:17:34Z</time>
      </trkpt>
      <trkpt lat="45.93682" lon="3.05236">
        <ele>579</ele>
        <time>2015-10-18T05:19:34Z</time>
      </trkpt>
      <trkpt lat="45.93671" lon="3.0526">
        <ele>575</ele>
        <time>2015-10-18T05:21:34Z</time>
      </trkpt>
      <trkpt lat="45.9366" lon="3.05278">
        <ele>572</ele>
        <time>2015-10-18T05:23:34Z</time>
      </trkpt>
      <trkpt lat="45.9365" lon="3.0531">
        <ele>570</ele>
        <time>2015-10-18T05:25:34Z</time>
      </trkpt>
      <trkpt lat="45.93629" lon="3.05349">
        <ele>565</ele>
        <time>2015-10-18T05:27:34Z</time>
      </trkpt>
      <trkpt lat="45.93603" lon="3.05391">
        <ele>560</ele>
        <time>2015-10-18T05:29:34Z</time>
      </trkpt>
      <trkpt lat="45.93591" lon="3.05435">
        <ele>562</ele>
        <time>2015-10-18T05:31:34Z</time>
      </trkpt>
      <trkpt lat="45.93588" lon="3.05479">
        <ele>567</ele>
        <time>2015-10-18T05:33:34Z</time>
      </trkpt>
      <trkpt lat="45.93597" lon="3.05516">
        <ele>575</ele>
        <time>2015-10-18T05:35:34Z</time>
      </trkpt>
      <trkpt lat="45.93571" lon="3.05523">
        <ele>571</ele>
        <time>2015-10-18T05:37:34Z</time>
      </trkpt>
      <trkpt lat="45.9354" lon="3.05503">
        <ele>563</ele>
        <time>2015-10-18T05:39:34Z</time>
      </trkpt>
      <trkpt lat="45.93527" lon="3.05491">
        <ele>559</ele>
        <time>2015-10-18T05:41:34Z</time>
      </trkpt>
      <trkpt lat="45.93506" lon="3.05469">
        <ele>550</ele>
        <time>2015-10-18T05:43:34Z</time>
      </trkpt>
      <trkpt lat="45.93482" lon="3.05464">
        <ele>541</ele>
        <time>2015-10-18T05:45:34Z</time>
      </trkpt>
      <trkpt lat="45.93467" lon="3.05468">
        <ele>537</ele>
        <time>2015-10-18T05:47:34Z</time>
      </trkpt>
      <trkpt lat="45.93423" lon="3.05541">
        <ele>539</ele>
        <time>2015-10-18T05:49:34Z</time>
      </trkpt>
      <trkpt lat="45.93412" lon="3.05567">
        <ele>541</ele>
        <time>2015-10-18T05:51:34Z</time>
      </trkpt>
      <trkpt lat="45.93393" lon="3.05585">
        <ele>537</ele>
        <time>2015-10-18T05:53:34Z</time>
      </trkpt>
      <trkpt lat="45.9336" lon="3.05625">
        <ele>531</ele>
        <time>2015-10-18T05:55:34Z</time>
      </trkpt>
      <trkpt lat="45.93329" lon="3.05672">
        <ele>526</ele>
        <time>2015-10-18T05:57:34Z</time>
      </trkpt>
      <trkpt lat="45.93313" lon="3.05714">
        <ele>522</ele>
        <time>2015-10-18T05:59:34Z</time>
      </trkpt>
      <trkpt lat="45.93312" lon="3.05748">
        <ele>525</ele>
        <time>2015-10-18T06:01:34Z</time>
      </trkpt>
      <trkpt lat="45.93309" lon="3.05792">
        <ele>530</ele>
        <time>2015-10-18T06:03:34Z</time>
      </trkpt>
      <trkpt lat="45.93296" lon="3.05813">
        <ele>527</ele>
        <time>2015-10-18T06:05:34Z</time>
      </trkpt>
      <trkpt lat="45.93273" lon="3.05828">
        <ele>518</ele>
        <time>2015-10-18T06:07:34Z</time>
      </trkpt>
      <trkpt lat="45.93253" lon="3.05848">
        <ele>513</ele>
        <time>2015-10-18T06:09:34Z</time>
      </trkpt>
      <trkpt lat="45.93242" lon="3.05871">
        <ele>512</ele>
        <time>2015-10-18T06:11:34Z</time>
      </trkpt>
      <trkpt lat="45.93225" lon="3.05901">
        <ele>509</ele>
        <time>2015-10-18T06:13:34Z</time>
      </trkpt>
      <trkpt lat="45.93208" lon="3.05928">
        <ele>504</ele>
        <time>2015-10-18T06:15:34Z</time>
      </trkpt>
      <trkpt lat="45.93196" lon="3.05951">
        <ele>499</ele>
        <time>2015-10-18T06:17:34Z</time>
      </trkpt>
      <trkpt lat="45.93183" lon="3.06012">
        <ele>497</ele>
        <time>2015-10-18T06:19:34Z</time>
      </trkpt>
      <trkpt lat="45.93181" lon="3.06054">
        <ele>494</ele>
        <time>2015-10-18T06:21:34Z</time>
      </trkpt>
      <trkpt lat="45.93185" lon="3.06096">
        <ele>492</ele>
        <time>2015-10-18T06:23:34Z</time>
      </trkpt>
      <trkpt lat="45.93195" lon="3.06148">
        <ele>489</ele>
        <time>2015-10-18T06:25:34Z</time>
      </trkpt>
      <trkpt lat="45.93199" lon="3.06201">
        <ele>483</ele>
        <time>2015-10-18T06:27:34Z</time>
      </trkpt>
      <trkpt lat="45.93206" lon="3.06234">
        <ele>481</ele>
        <time>2015-10-18T06:29:34Z</time>
      </trkpt>
      <trkpt lat="45.93212" lon="3.06272">
        <ele>477</ele>
        <time>2015-10-18T06:31:34Z</time>
      </trkpt>
      <trkpt lat="45.93224" lon="3.06358">
        <ele>467</ele>
        <time>2015-10-18T06:33:34Z</time>
      </trkpt>
      <trkpt lat="45.93239" lon="3.06387">
        <ele>466</ele>
        <time>2015-10-18T06:35:34Z</time>
      </trkpt>
      <trkpt lat="45.93246" lon="3.0641">
        <ele>463</ele>
        <time>2015-10-18T06:37:34Z</time>
      </trkpt>
      <trkpt lat="45.93218" lon="3.0639">
        <ele>458</ele>
        <time>2015-10-18T06:39:34Z</time>
      </trkpt>
      <trkpt lat="45.93184" lon="3.06306">
        <ele>459</ele>
        <time>2015-10-18T06:41:34Z</time>
      </trkpt>
      <trkpt lat="45.93162" lon="3.06247">
        <ele>459</ele>
        <time>2015-10-18T06:43:34Z</time>
      </trkpt>
      <trkpt lat="45.93138" lon="3.0621">
        <ele>458</ele>
        <time>2015-10-18T06:45:34Z</time>
      </trkpt>
      <trkpt lat="45.93112" lon="3.06135">
        <ele>457</ele>
        <time>2015-10-18T06:47:34Z</time>
      </trkpt>
      <trkpt lat="45.93107" lon="3.06081">
        <ele>459</ele>
        <time>2015-10-18T06:49:34Z</time>
      </trkpt>
      <trkpt lat="45.93101" lon="3.0605">
        <ele>457</ele>
        <time>2015-10-18T06:51:34Z</time>
      </trkpt>
      <trkpt lat="45.931" lon="3.06114">
        <ele>454</ele>
        <time>2015-10-18T06:53:34Z</time>
      </trkpt>
      <trkpt lat="45.93107" lon="3.06188">
        <ele>452</ele>
        <time>2015-10-18T06:55:34Z</time>
      </trkpt>
      <trkpt lat="45.93083" lon="3.06252">
        <ele>443</ele>
        <time>2015-10-18T06:57:34Z</time>
      </trkpt>
      <trkpt lat="45.93063" lon="3.06274">
        <ele>451</ele>
        <time>2015-10-18T06:59:34Z</time>
      </trkpt>
      <trkpt lat="45.93055" lon="3.06294">
        <ele>453</ele>
        <time>2015-10-18T07:01:34Z</time>
      </trkpt>
      <trkpt lat="45.9306" lon="3.0632">
        <ele>450</ele>
        <time>2015-10-18T07:03:34Z</time>
      </trkpt>
      <trkpt lat="45.93062" lon="3.06365">
        <ele>448</ele>
        <time>2015-10-18T07:05:34Z</time>
      </trkpt>
      <trkpt lat="45.93059" lon="3.06399">
        <ele>447</ele>
        <time>2015-10-18T07:07:34Z</time>
      </trkpt>
      <trkpt lat="45.93051" lon="3.06429">
        <ele>446</ele>
        <time>2015-10-18T07:09:34Z</time>
      </trkpt>
      <trkpt lat="45.93039" lon="3.06448">
        <ele>446</ele>
        <time>2015-10-18T07:11:34Z</time>
      </trkpt>
      <trkpt lat="45.93029" lon="3.06414">
        <ele>451</ele>
        <time>2015-10-18T07:13:34Z</time>
      </trkpt>
      <trkpt lat="45.93012" lon="3.06397">
        <ele>456</ele>
        <time>2015-10-18T07:15:34Z</time>
      </trkpt>
      <trkpt lat="45.92969" lon="3.06399">
        <ele>459</ele>
        <time>2015-10-18T07:17:34Z</time>
      </trkpt>
      <trkpt lat="45.92872" lon="3.06394">
        <ele>459</ele>
        <time>2015-10-18T07:19:34Z</time>
      </trkpt>
      <trkpt lat="45.92797" lon="3.06394">
        <ele>456</ele>
        <time>2015-10-18T07:21:34Z</time>
      </trkpt>
      <trkpt lat="45.92756" lon="3.06398">
        <ele>454</ele>
        <time>2015-10-18T07:23:34Z</time>
      </trkpt>
      <trkpt lat="45.92724" lon="3.06414">
        <ele>452</ele>
        <time>2015-10-18T07:25:34Z</time>
      </trkpt>
      <trkpt lat="45.92641" lon="3.06443">
        <ele>452</ele>
        <time>2015-10-18T07:27:34Z</time>
      </trkpt>
      <trkpt lat="45.92589" lon="3.06304">
        <ele>457</ele>
        <time>2015-10-18T07:29:34Z</time>
      </trkpt>
      <trkpt lat="45.9256" lon="3.06321">
        <ele>455</ele>
        <time>2015-10-18T07:31:34Z</time>
      </trkpt>
    </trkseg>
  </trk>
</gpx>